createdAt,value
2023-02-21T00:00:34.544Z,17.92
2023-02-21T00:01:47.373Z,17.93
2023-02-21T00:03:01.019Z,17.94
2023-02-21T00:04:03.752Z,17.92
2023-02-21T00:05:17.530Z,17.9
2023-02-21T00:06:30.291Z,17.9
2023-02-21T00:07:44.032Z,17.92
2023-02-21T00:08:46.773Z,17.89
2023-02-21T00:10:00.506Z,17.92
2023-02-21T00:11:13.642Z,17.92
2023-02-21T00:12:18.040Z,17.9
2023-02-21T00:13:30.763Z,17.89
2023-02-21T00:14:44.558Z,17.89
2023-02-21T00:15:47.447Z,17.92
2023-02-21T00:17:01.026Z,17.89
2023-02-21T00:18:14.289Z,17.9
2023-02-21T00:19:18.255Z,17.9
2023-02-21T00:20:51.219Z,17.9
2023-02-21T00:21:45.042Z,17.89
2023-02-21T00:22:48.058Z,17.9
2023-02-21T00:24:01.545Z,17.89
2023-02-21T00:25:14.452Z,17.92
2023-02-21T00:26:18.097Z,17.92
2023-02-21T00:27:31.452Z,17.92
2023-02-21T00:28:45.029Z,17.92
2023-02-21T00:29:48.312Z,17.93
2023-02-21T00:31:02.051Z,17.92
2023-02-21T00:32:14.816Z,17.87
2023-02-21T00:33:18.619Z,17.9
2023-02-21T00:34:31.386Z,17.89
2023-02-21T00:35:45.029Z,17.89
2023-02-21T00:36:47.764Z,17.87
2023-02-21T00:38:01.520Z,17.87
2023-02-21T00:39:14.233Z,17.9
2023-02-21T00:40:27.523Z,17.89
2023-02-21T00:41:30.271Z,17.86
2023-02-21T00:42:44.022Z,17.89
2023-02-21T00:43:56.699Z,17.86
2023-02-21T00:45:00.049Z,17.87
2023-02-21T00:46:12.782Z,17.86
2023-02-21T00:47:26.543Z,17.85
2023-02-21T00:48:29.285Z,17.86
2023-02-21T00:49:43.024Z,17.83
2023-02-21T00:50:55.738Z,17.86
2023-02-21T00:51:59.512Z,17.85
2023-02-21T00:53:12.426Z,17.85
2023-02-21T00:54:26.547Z,17.85
2023-02-21T00:55:30.457Z,17.83
2023-02-21T00:56:44.004Z,17.85
2023-02-21T00:57:56.788Z,17.85
2023-02-21T00:59:10.027Z,17.82
2023-02-21T01:00:12.783Z,17.83
2023-02-21T01:01:36.080Z,17.85
2023-02-21T01:02:28.998Z,17.83
2023-02-21T01:03:42.533Z,17.82
2023-02-21T01:04:55.241Z,17.83
2023-02-21T01:06:08.538Z,17.86
2023-02-21T01:07:11.299Z,17.87
2023-02-21T01:08:25.063Z,17.85
2023-02-21T01:09:37.755Z,17.86
2023-02-21T01:10:43.564Z,17.85
2023-02-21T01:11:56.245Z,17.87
2023-02-21T01:13:10.059Z,17.85
2023-02-21T01:14:12.794Z,17.83
2023-02-21T01:15:26.549Z,17.85
2023-02-21T01:16:39.267Z,17.85
2023-02-21T01:17:43.069Z,17.8
2023-02-21T01:18:55.777Z,17.82
2023-02-21T01:20:09.534Z,17.83
2023-02-21T01:21:12.419Z,17.79
2023-02-21T01:22:27.887Z,17.83
2023-02-21T01:23:31.021Z,17.82
2023-02-21T01:24:45.712Z,17.82
2023-02-21T01:25:58.416Z,17.8
2023-02-21T01:27:02.062Z,17.83
2023-02-21T01:28:14.765Z,17.85
2023-02-21T01:29:28.024Z,17.82
2023-02-21T01:30:40.791Z,17.79
2023-02-21T01:31:44.536Z,17.82
2023-02-21T01:32:57.245Z,17.8
2023-02-21T01:34:10.562Z,17.79
2023-02-21T01:35:13.302Z,17.8
2023-02-21T01:36:27.543Z,17.79
2023-02-21T01:37:50.315Z,17.8
2023-02-21T01:38:44.045Z,17.79
2023-02-21T01:39:57.588Z,17.8
2023-02-21T01:41:11.043Z,17.8
2023-02-21T01:42:14.028Z,17.8
2023-02-21T01:43:28.129Z,17.8
2023-02-21T01:44:40.983Z,17.79
2023-02-21T01:45:54.607Z,17.79
2023-02-21T01:46:57.499Z,17.82
2023-02-21T01:48:11.019Z,17.8
2023-02-21T01:49:23.766Z,17.8
2023-02-21T01:50:28.574Z,17.8
2023-02-21T01:51:51.169Z,17.8
2023-02-21T01:52:55.558Z,17.78
2023-02-21T01:54:08.334Z,17.79
2023-02-21T01:55:12.087Z,17.79
2023-02-21T01:56:24.786Z,17.8
2023-02-21T01:57:29.066Z,17.8
2023-02-21T01:58:41.758Z,17.82
2023-02-21T01:59:55.078Z,17.79
2023-02-21T02:00:57.817Z,17.8
2023-02-21T02:02:11.545Z,17.8
2023-02-21T02:03:24.268Z,17.8
2023-02-21T02:04:38.158Z,17.79
2023-02-21T02:05:40.991Z,17.79
2023-02-21T02:06:58.157Z,17.79
2023-02-21T02:08:00.887Z,17.78
2023-02-21T02:09:14.590Z,17.79
2023-02-21T02:10:37.276Z,17.78
2023-02-21T02:11:30.561Z,17.78
2023-02-21T02:12:43.126Z,17.78
2023-02-21T02:13:56.547Z,17.79
2023-02-21T02:14:59.292Z,17.79
2023-02-21T02:16:13.100Z,17.8
2023-02-21T02:17:26.045Z,17.79
2023-02-21T02:18:39.578Z,17.78
2023-02-21T02:19:42.396Z,17.79
2023-02-21T02:20:56.090Z,17.78
2023-02-21T02:22:08.832Z,17.78
2023-02-21T02:23:12.590Z,17.78
2023-02-21T02:24:25.363Z,17.76
2023-02-21T02:25:39.064Z,17.76
2023-02-21T02:26:41.931Z,17.76
2023-02-21T02:27:55.577Z,17.73
2023-02-21T02:29:08.309Z,17.72
2023-02-21T02:30:22.245Z,17.75
2023-02-21T02:31:25.137Z,17.72
2023-02-21T02:32:39.543Z,17.73
2023-02-21T02:33:42.487Z,17.75
2023-02-21T02:34:56.095Z,17.73
2023-02-21T02:36:08.822Z,17.75
2023-02-21T02:37:22.641Z,17.73
2023-02-21T02:38:25.531Z,17.73
2023-02-21T02:39:39.078Z,17.73
2023-02-21T02:40:51.782Z,17.73
2023-02-21T02:41:55.556Z,17.75
2023-02-21T02:43:08.322Z,17.72
2023-02-21T02:44:22.102Z,17.72
2023-02-21T02:45:24.850Z,17.71
2023-02-21T02:46:38.636Z,17.71
2023-02-21T02:47:51.463Z,17.72
2023-02-21T02:49:05.044Z,17.75
2023-02-21T02:50:07.786Z,17.71
2023-02-21T02:51:22.078Z,17.72
2023-02-21T02:52:34.937Z,17.72
2023-02-21T02:53:38.606Z,17.73
2023-02-21T02:54:51.633Z,17.73
2023-02-21T02:56:05.065Z,17.72
2023-02-21T02:57:07.831Z,17.72
2023-02-21T02:58:31.551Z,17.72
2023-02-21T02:59:34.285Z,17.73
2023-02-21T03:00:38.052Z,17.75
2023-02-21T03:01:50.836Z,17.71
2023-02-21T03:03:04.544Z,17.72
2023-02-21T03:04:07.282Z,17.72
2023-02-21T03:05:21.095Z,17.75
2023-02-21T03:06:33.816Z,17.72
2023-02-21T03:07:47.599Z,17.72
2023-02-21T03:08:50.395Z,17.72
2023-02-21T03:10:04.037Z,17.75
2023-02-21T03:11:16.873Z,17.75
2023-02-21T03:12:20.559Z,17.72
2023-02-21T03:13:33.246Z,17.69
2023-02-21T03:14:47.361Z,17.72
2023-02-21T03:15:50.140Z,17.71
2023-02-21T03:17:03.553Z,17.72
2023-02-21T03:18:16.313Z,17.72
2023-02-21T03:19:20.069Z,17.69
2023-02-21T03:20:32.783Z,17.71
2023-02-21T03:21:46.088Z,17.72
2023-02-21T03:22:49.074Z,17.72
2023-02-21T03:24:02.558Z,17.68
2023-02-21T03:25:15.283Z,17.72
2023-02-21T03:26:28.548Z,17.71
2023-02-21T03:27:31.290Z,17.71
2023-02-21T03:28:45.064Z,17.68
2023-02-21T03:29:57.769Z,17.71
2023-02-21T03:31:01.612Z,17.69
2023-02-21T03:32:14.380Z,17.69
2023-02-21T03:33:28.066Z,17.71
2023-02-21T03:34:30.806Z,17.68
2023-02-21T03:35:54.069Z,17.69
2023-02-21T03:36:56.794Z,17.68
2023-02-21T03:38:10.057Z,17.69
2023-02-21T03:39:12.816Z,17.69
2023-02-21T03:40:26.087Z,17.71
2023-02-21T03:41:38.906Z,17.69
2023-02-21T03:42:42.566Z,17.69
2023-02-21T03:43:55.243Z,17.71
2023-02-21T03:45:08.563Z,17.71
2023-02-21T03:46:11.329Z,17.72
2023-02-21T03:47:25.080Z,17.73
2023-02-21T03:48:37.767Z,17.71
2023-02-21T03:49:51.076Z,17.71
2023-02-21T03:50:53.799Z,17.71
2023-02-21T03:52:07.068Z,17.72
2023-02-21T03:53:19.745Z,17.71
2023-02-21T03:54:23.094Z,17.71
2023-02-21T03:55:35.802Z,17.71
2023-02-21T03:56:49.551Z,17.69
2023-02-21T03:58:02.039Z,17.68
2023-02-21T03:59:05.611Z,17.71
2023-02-21T04:00:18.386Z,17.71
2023-02-21T04:01:32.120Z,17.69
2023-02-21T04:02:34.869Z,17.72
2023-02-21T04:03:48.612Z,17.71
2023-02-21T04:05:01.308Z,17.71
2023-02-21T04:06:05.107Z,17.71
2023-02-21T04:07:17.814Z,17.68
2023-02-21T04:08:31.088Z,17.68
2023-02-21T04:09:33.818Z,17.69
2023-02-21T04:10:52.460Z,17.68
2023-02-21T04:11:55.629Z,17.68
2023-02-21T04:13:09.069Z,17.71
2023-02-21T04:14:21.764Z,17.69
2023-02-21T04:15:26.620Z,17.71
2023-02-21T04:16:39.462Z,17.72
2023-02-21T04:17:53.101Z,17.71
2023-02-21T04:18:55.816Z,17.68
2023-02-21T04:20:09.601Z,17.68
2023-02-21T04:21:22.288Z,17.69
2023-02-21T04:22:26.079Z,17.66
2023-02-21T04:23:38.922Z,17.69
2023-02-21T04:24:52.569Z,17.69
2023-02-21T04:25:55.296Z,17.68
2023-02-21T04:27:09.102Z,17.68
2023-02-21T04:28:21.781Z,17.69
2023-02-21T04:29:35.596Z,17.69
2023-02-21T04:30:38.455Z,17.66
2023-02-21T04:31:52.185Z,17.69
2023-02-21T04:33:05.023Z,17.68
2023-02-21T04:34:12.284Z,17.68
2023-02-21T04:35:25.190Z,17.68
2023-02-21T04:36:28.567Z,17.69
2023-02-21T04:37:41.273Z,17.69
2023-02-21T04:38:54.563Z,17.69
2023-02-21T04:39:57.312Z,17.68
2023-02-21T04:41:11.097Z,17.69
2023-02-21T04:42:23.775Z,17.68
2023-02-21T04:43:27.101Z,17.69
2023-02-21T04:45:00.636Z,17.68
2023-02-21T04:45:54.623Z,17.66
2023-02-21T04:46:57.395Z,17.69
2023-02-21T04:48:11.095Z,17.68
2023-02-21T04:49:23.775Z,17.71
2023-02-21T04:50:27.609Z,17.69
2023-02-21T04:51:40.281Z,17.71
2023-02-21T04:52:54.399Z,17.71
2023-02-21T04:53:57.382Z,17.71
2023-02-21T04:55:11.154Z,17.69
2023-02-21T04:56:34.700Z,17.71
2023-02-21T04:57:29.630Z,17.71
2023-02-21T04:58:45.610Z,17.69
2023-02-21T04:59:49.579Z,17.71
2023-02-21T05:01:02.321Z,17.69
2023-02-21T05:02:26.077Z,17.71
2023-02-21T05:03:18.917Z,17.75
2023-02-21T05:04:33.161Z,17.83
2023-02-21T05:05:45.911Z,17.93
2023-02-21T05:06:49.759Z,18.07
2023-02-21T05:08:02.322Z,18.19
2023-02-21T05:09:15.678Z,18.31
2023-02-21T05:10:18.273Z,18.43
2023-02-21T05:11:31.634Z,18.54
2023-02-21T05:12:44.173Z,18.65
2023-02-21T05:13:57.606Z,18.74
2023-02-21T05:15:01.609Z,18.84
2023-02-21T05:16:15.294Z,18.92
2023-02-21T05:17:17.874Z,19.01
2023-02-21T05:18:31.098Z,19.11
2023-02-21T05:19:43.542Z,19.16
2023-02-21T05:20:56.628Z,19.23
2023-02-21T05:21:59.173Z,19.29
2023-02-21T05:23:14.262Z,19.33
2023-02-21T05:24:26.750Z,19.4
2023-02-21T05:25:30.132Z,19.43
2023-02-21T05:26:42.620Z,19.49
2023-02-21T05:27:57.167Z,19.53
2023-02-21T05:28:59.701Z,19.59
2023-02-21T05:30:13.113Z,19.6
2023-02-21T05:31:25.617Z,19.67
2023-02-21T05:32:29.152Z,19.71
2023-02-21T05:33:41.581Z,19.73
2023-02-21T05:34:54.660Z,19.77
2023-02-21T05:36:07.088Z,19.78
2023-02-21T05:37:10.609Z,19.8
2023-02-21T05:38:22.956Z,19.83
2023-02-21T05:39:36.091Z,19.86
2023-02-21T05:40:38.621Z,19.9
2023-02-21T05:41:52.637Z,19.93
2023-02-21T05:43:05.164Z,19.96
2023-02-21T05:44:28.139Z,19.97
2023-02-21T05:45:20.719Z,20.01
2023-02-21T05:46:34.099Z,20.0
2023-02-21T05:47:46.454Z,20.04
2023-02-21T05:48:49.625Z,20.06
2023-02-21T05:50:01.980Z,20.06
2023-02-21T05:51:25.102Z,20.07
2023-02-21T05:52:57.338Z,20.08
2023-02-21T05:53:31.083Z,20.1
2023-02-21T05:54:43.419Z,20.13
2023-02-21T05:55:56.587Z,20.18
2023-02-21T05:56:59.001Z,20.18
2023-02-21T05:58:12.080Z,20.19
2023-02-21T05:59:24.506Z,20.17
2023-02-21T06:00:37.592Z,20.17
2023-02-21T06:01:40.096Z,20.17
2023-02-21T06:02:53.577Z,20.08
2023-02-21T06:04:06.015Z,20.04
2023-02-21T06:05:09.079Z,20.01
2023-02-21T06:06:21.477Z,20.0
2023-02-21T06:07:34.621Z,20.0
2023-02-21T06:08:46.954Z,19.97
2023-02-21T06:09:50.106Z,19.96
2023-02-21T06:11:02.461Z,19.9
2023-02-21T06:12:15.592Z,19.83
2023-02-21T06:13:18.064Z,19.67
2023-02-21T06:14:31.106Z,19.59
2023-02-21T06:15:43.504Z,19.5
2023-02-21T06:16:57.129Z,19.32
2023-02-21T06:17:59.618Z,19.23
2023-02-21T06:19:13.104Z,19.19
2023-02-21T06:20:25.537Z,19.16
2023-02-21T06:21:28.602Z,19.12
2023-02-21T06:22:41.036Z,19.12
2023-02-21T06:23:54.078Z,19.05
2023-02-21T06:25:06.512Z,19.02
2023-02-21T06:26:10.092Z,18.99
2023-02-21T06:27:22.552Z,18.91
2023-02-21T06:28:35.623Z,18.88
2023-02-21T06:29:38.149Z,18.89
2023-02-21T06:30:51.717Z,18.87
2023-02-21T06:32:04.637Z,18.88
2023-02-21T06:33:18.133Z,18.8
2023-02-21T06:34:20.659Z,18.82
2023-02-21T06:35:34.094Z,18.81
2023-02-21T06:36:46.564Z,18.87
2023-02-21T06:37:50.099Z,18.91
2023-02-21T06:39:02.562Z,18.98
2023-02-21T06:40:15.628Z,19.02
2023-02-21T06:41:18.149Z,19.05
2023-02-21T06:42:31.592Z,19.12
2023-02-21T06:43:44.071Z,19.19
2023-02-21T06:44:57.168Z,19.22
2023-02-21T06:45:59.726Z,19.27
2023-02-21T06:47:13.133Z,19.29
2023-02-21T06:48:25.554Z,19.36
2023-02-21T06:49:29.142Z,19.38
2023-02-21T06:50:41.559Z,19.46
2023-02-21T06:51:54.614Z,19.49
2023-02-21T06:53:07.006Z,19.5
2023-02-21T06:54:10.142Z,19.56
2023-02-21T06:55:25.034Z,19.57
2023-02-21T06:56:29.149Z,19.64
2023-02-21T06:57:41.527Z,19.67
2023-02-21T06:58:54.596Z,19.73
2023-02-21T07:00:06.978Z,19.76
2023-02-21T07:01:10.280Z,19.77
2023-02-21T07:02:22.721Z,19.8
2023-02-21T07:03:36.116Z,19.84
2023-02-21T07:04:38.672Z,19.88
2023-02-21T07:05:52.120Z,19.93
2023-02-21T07:07:04.491Z,19.93
2023-02-21T07:08:17.696Z,19.94
2023-02-21T07:09:20.136Z,19.97
2023-02-21T07:10:33.110Z,19.98
2023-02-21T07:11:45.435Z,20.03
2023-02-21T07:12:48.649Z,20.07
2023-02-21T07:14:01.158Z,20.06
2023-02-21T07:15:14.105Z,20.1
2023-02-21T07:16:26.463Z,20.13
2023-02-21T07:17:29.636Z,20.15
2023-02-21T07:18:41.983Z,20.15
2023-02-21T07:19:58.660Z,20.15
2023-02-21T07:21:04.480Z,20.19
2023-02-21T07:22:21.266Z,20.19
2023-02-21T07:23:23.674Z,20.22
2023-02-21T07:24:36.767Z,20.24
2023-02-21T07:25:39.305Z,20.28
2023-02-21T07:26:52.733Z,20.27
2023-02-21T07:28:05.067Z,20.29
2023-02-21T07:29:08.150Z,20.31
2023-02-21T07:30:20.490Z,20.31
2023-02-21T07:31:33.698Z,20.32
2023-02-21T07:33:53.032Z,20.34
2023-02-21T07:35:05.349Z,20.35
2023-02-21T07:36:08.642Z,20.35
2023-02-21T07:37:20.962Z,20.38
2023-02-21T07:38:34.133Z,20.38
2023-02-21T07:39:46.414Z,20.42
2023-02-21T07:40:49.616Z,20.45
2023-02-21T07:42:01.920Z,20.44
2023-02-21T07:43:15.119Z,20.44
2023-02-21T07:44:17.514Z,20.48
2023-02-21T07:45:40.637Z,20.49
2023-02-21T07:46:43.188Z,20.51
2023-02-21T07:47:56.620Z,20.52
2023-02-21T07:48:59.015Z,20.55
2023-02-21T07:50:12.141Z,20.55
2023-02-21T07:51:24.506Z,20.57
2023-02-21T07:52:27.629Z,20.58
2023-02-21T07:53:39.981Z,20.59
2023-02-21T07:54:53.127Z,20.58
2023-02-21T07:56:05.421Z,20.64
2023-02-21T07:57:08.615Z,20.62
2023-02-21T07:58:21.514Z,20.64
2023-02-21T07:59:34.617Z,20.64
2023-02-21T08:00:40.266Z,20.62
2023-02-21T08:01:53.645Z,20.62
2023-02-21T08:02:56.208Z,20.64
2023-02-21T08:04:09.157Z,20.65
2023-02-21T08:05:21.461Z,20.66
2023-02-21T08:06:34.670Z,20.68
2023-02-21T08:07:37.062Z,20.68
2023-02-21T08:08:50.145Z,20.69
2023-02-21T08:10:02.439Z,20.69
2023-02-21T08:11:15.920Z,20.69
2023-02-21T08:12:18.623Z,20.69
2023-02-21T08:13:32.153Z,20.7
2023-02-21T08:14:44.444Z,20.69
2023-02-21T08:15:47.667Z,20.73
2023-02-21T08:17:00.139Z,20.75
2023-02-21T08:18:13.160Z,20.76
2023-02-21T08:19:15.524Z,20.76
2023-02-21T08:20:28.665Z,20.78
2023-02-21T08:21:40.957Z,20.8
2023-02-21T08:22:54.154Z,20.79
2023-02-21T08:23:56.524Z,20.8
2023-02-21T08:25:09.679Z,20.8
2023-02-21T08:26:21.783Z,20.82
2023-02-21T08:27:34.668Z,20.82
2023-02-21T08:28:37.026Z,20.83
2023-02-21T08:29:50.163Z,20.82
2023-02-21T08:31:02.468Z,20.85
2023-02-21T08:32:05.668Z,20.85
2023-02-21T08:33:17.975Z,20.86
2023-02-21T08:34:31.171Z,20.86
2023-02-21T08:35:43.414Z,20.88
2023-02-21T08:36:46.670Z,20.86
2023-02-21T08:37:58.947Z,20.86
2023-02-21T08:39:12.174Z,20.88
2023-02-21T08:40:14.552Z,20.86
2023-02-21T08:41:27.660Z,20.88
2023-02-21T08:42:39.926Z,20.86
2023-02-21T08:43:53.156Z,20.89
2023-02-21T08:44:55.523Z,20.9
2023-02-21T08:46:08.632Z,20.92
2023-02-21T08:47:20.974Z,20.9
2023-02-21T08:48:34.842Z,20.9
2023-02-21T08:49:37.288Z,20.92
2023-02-21T08:50:50.169Z,20.9
2023-02-21T08:52:02.522Z,20.92
2023-02-21T08:53:05.701Z,20.9
2023-02-21T08:54:17.911Z,20.9
2023-02-21T08:55:30.640Z,20.92
2023-02-21T08:56:33.122Z,20.92
2023-02-21T08:57:46.190Z,20.95
2023-02-21T08:58:58.594Z,20.93
2023-02-21T09:00:11.676Z,20.93
2023-02-21T09:01:14.515Z,20.95
2023-02-21T09:02:28.145Z,20.95
2023-02-21T09:03:40.392Z,20.95
2023-02-21T09:04:43.669Z,20.96
2023-02-21T09:05:55.965Z,20.97
2023-02-21T09:07:09.196Z,20.95
2023-02-21T09:08:21.426Z,20.97
2023-02-21T09:09:24.645Z,21.0
2023-02-21T09:10:36.906Z,20.99
2023-02-21T09:11:50.146Z,21.0
2023-02-21T09:13:02.270Z,21.0
2023-02-21T09:14:05.676Z,21.04
2023-02-21T09:15:17.913Z,21.03
2023-02-21T09:16:40.671Z,21.04
2023-02-21T09:17:33.264Z,21.04
2023-02-21T09:18:46.149Z,21.07
2023-02-21T09:19:58.376Z,21.07
2023-02-21T09:21:11.705Z,21.09
2023-02-21T09:22:14.306Z,21.09
2023-02-21T09:23:28.116Z,21.09
2023-02-21T09:24:40.492Z,21.11
2023-02-21T09:25:43.712Z,21.11
2023-02-21T09:26:55.958Z,21.1
2023-02-21T09:28:09.171Z,21.09
2023-02-21T09:29:46.301Z,21.09
2023-02-21T09:30:49.805Z,21.1
2023-02-21T09:31:32.422Z,21.14
2023-02-21T09:32:44.773Z,21.13
2023-02-21T09:33:58.186Z,21.11
2023-02-21T09:35:10.478Z,21.14
2023-02-21T09:36:13.772Z,21.16
2023-02-21T09:37:26.011Z,21.19
2023-02-21T09:38:39.191Z,21.16
2023-02-21T09:39:51.454Z,21.17
2023-02-21T09:40:54.682Z,21.16
2023-02-21T09:42:06.931Z,21.17
2023-02-21T09:43:20.185Z,21.16
2023-02-21T09:44:22.573Z,21.16
2023-02-21T09:45:35.694Z,21.13
2023-02-21T09:46:47.944Z,21.1
2023-02-21T09:48:01.170Z,21.07
2023-02-21T09:49:03.537Z,21.04
2023-02-21T09:50:16.694Z,21.01
2023-02-21T09:51:28.926Z,20.99
2023-02-21T09:52:32.250Z,20.96
2023-02-21T09:53:44.525Z,20.95
2023-02-21T09:54:57.696Z,20.88
2023-02-21T09:56:09.933Z,20.83
2023-02-21T09:57:13.179Z,20.82
2023-02-21T09:58:25.490Z,20.79
2023-02-21T09:59:38.684Z,20.73
2023-02-21T10:00:41.080Z,20.72
2023-02-21T10:01:54.203Z,20.69
2023-02-21T10:03:06.508Z,20.65
2023-02-21T10:04:19.725Z,20.65
2023-02-21T10:05:22.253Z,20.62
2023-02-21T10:06:35.192Z,20.61
2023-02-21T10:07:47.486Z,20.58
2023-02-21T10:09:00.892Z,20.62
2023-02-21T10:10:03.277Z,20.61
2023-02-21T10:11:16.405Z,20.62
2023-02-21T10:12:28.889Z,20.61
2023-02-21T10:13:32.190Z,20.61
2023-02-21T10:14:44.480Z,20.64
2023-02-21T10:15:57.662Z,20.68
2023-02-21T10:17:00.125Z,20.65
2023-02-21T10:18:13.178Z,20.68
2023-02-21T10:19:25.443Z,20.68
2023-02-21T10:20:38.674Z,20.69
2023-02-21T10:21:41.182Z,20.7
2023-02-21T10:22:54.691Z,20.69
2023-02-21T10:24:07.046Z,20.72
2023-02-21T10:25:10.694Z,20.75
2023-02-21T10:26:22.957Z,20.72
2023-02-21T10:27:36.178Z,20.72
2023-02-21T10:28:48.472Z,20.73
2023-02-21T10:29:52.195Z,20.78
2023-02-21T10:31:04.763Z,20.79
2023-02-21T10:33:34.624Z,20.83
2023-02-21T10:34:36.993Z,20.86
2023-02-21T10:35:40.136Z,20.89
2023-02-21T10:36:52.509Z,20.89
2023-02-21T10:38:05.643Z,20.9
2023-02-21T10:39:17.893Z,20.9
2023-02-21T10:40:21.131Z,20.9
2023-02-21T10:41:33.397Z,20.95
2023-02-21T10:42:46.684Z,20.96
2023-02-21T10:43:49.035Z,20.97
2023-02-21T10:45:02.203Z,20.99
2023-02-21T10:46:14.642Z,20.97
2023-02-21T10:47:27.676Z,20.99
2023-02-21T10:48:30.039Z,20.99
2023-02-21T10:49:43.151Z,20.99
2023-02-21T10:50:55.399Z,20.99
2023-02-21T10:52:08.659Z,21.0
2023-02-21T10:53:11.117Z,20.99
2023-02-21T10:54:24.194Z,21.01
2023-02-21T10:55:36.508Z,20.99
2023-02-21T10:56:39.685Z,21.0
2023-02-21T10:57:52.003Z,21.0
2023-02-21T10:59:05.176Z,21.0
2023-02-21T11:00:56.963Z,21.03
2023-02-21T11:01:20.654Z,21.04
2023-02-21T11:02:32.900Z,21.04
2023-02-21T11:03:46.143Z,21.06
2023-02-21T11:04:48.478Z,21.1
2023-02-21T11:06:01.677Z,21.09
2023-02-21T11:07:13.865Z,21.11
2023-02-21T11:08:26.696Z,21.13
2023-02-21T11:09:29.099Z,21.11
2023-02-21T11:10:42.185Z,21.13
2023-02-21T11:11:54.446Z,21.13
2023-02-21T11:13:07.646Z,21.14
2023-02-21T11:14:09.976Z,21.13
2023-02-21T11:15:23.189Z,21.13
2023-02-21T11:16:35.494Z,21.13
2023-02-21T11:17:38.716Z,21.16
2023-02-21T11:18:50.953Z,21.16
2023-02-21T11:20:04.194Z,21.14
2023-02-21T11:21:16.698Z,21.13
2023-02-21T11:22:20.209Z,21.17
2023-02-21T11:23:32.433Z,21.16
2023-02-21T11:24:45.659Z,21.13
2023-02-21T11:25:48.025Z,21.13
2023-02-21T11:27:01.184Z,21.11
2023-02-21T11:28:13.463Z,21.13
2023-02-21T11:29:26.708Z,21.13
2023-02-21T11:30:29.086Z,21.14
2023-02-21T11:31:42.323Z,21.13
2023-02-21T11:32:56.906Z,21.11
2023-02-21T11:34:00.208Z,21.1
2023-02-21T11:35:12.438Z,21.09
2023-02-21T11:36:25.690Z,21.07
2023-02-21T11:37:28.066Z,21.07
2023-02-21T11:38:41.224Z,21.09
2023-02-21T11:39:53.465Z,21.07
2023-02-21T11:41:06.669Z,21.09
2023-02-21T11:42:09.004Z,21.06
2023-02-21T11:43:22.227Z,21.07
2023-02-21T11:44:34.339Z,21.09
2023-02-21T11:45:47.432Z,21.09
2023-02-21T11:46:49.816Z,21.06
2023-02-21T11:48:02.699Z,21.06
2023-02-21T11:49:14.976Z,21.07
2023-02-21T11:50:18.205Z,21.04
2023-02-21T11:51:30.552Z,21.07
2023-02-21T11:52:43.711Z,21.07
2023-02-21T11:53:55.984Z,21.04
2023-02-21T11:54:59.179Z,21.06
2023-02-21T11:56:11.499Z,21.06
2023-02-21T11:57:24.751Z,21.03
2023-02-21T11:58:27.119Z,21.04
2023-02-21T11:59:40.236Z,21.06
2023-02-21T12:00:52.523Z,21.07
2023-02-21T12:02:05.835Z,21.04
2023-02-21T12:03:08.194Z,21.06
2023-02-21T12:04:22.247Z,21.07
2023-02-21T12:05:34.581Z,21.06
2023-02-21T12:06:37.675Z,21.06
2023-02-21T12:07:49.928Z,21.03
2023-02-21T12:09:03.182Z,21.07
2023-02-21T12:10:16.338Z,21.06
2023-02-21T12:11:19.724Z,21.09
2023-02-21T12:12:31.970Z,21.07
2023-02-21T12:13:45.177Z,21.06
2023-02-21T12:14:47.800Z,21.04
2023-02-21T12:16:01.552Z,21.06
2023-02-21T12:17:15.237Z,21.04
2023-02-21T12:18:18.716Z,21.06
2023-02-21T12:19:31.044Z,21.07
2023-02-21T12:20:44.256Z,21.09
2023-02-21T12:21:46.640Z,21.1
2023-02-21T12:22:59.675Z,21.1
2023-02-21T12:24:12.408Z,21.09
2023-02-21T12:25:25.705Z,21.09
2023-02-21T12:26:28.119Z,21.09
2023-02-21T12:27:41.227Z,21.13
2023-02-21T12:28:53.466Z,21.14
2023-02-21T12:29:56.682Z,21.13
2023-02-21T12:31:09.166Z,21.16
2023-02-21T12:32:22.259Z,21.19
2023-02-21T12:33:34.644Z,21.2
2023-02-21T12:34:37.703Z,21.19
2023-02-21T12:35:50.052Z,21.2
2023-02-21T12:37:03.209Z,21.21
2023-02-21T12:38:05.779Z,21.23
2023-02-21T12:39:18.889Z,21.21
2023-02-21T12:40:31.130Z,21.23
2023-02-21T12:41:44.227Z,21.23
2023-02-21T12:42:46.557Z,21.26
2023-02-21T12:43:59.709Z,21.23
2023-02-21T12:45:11.957Z,21.21
2023-02-21T12:46:15.238Z,21.21
2023-02-21T12:47:27.665Z,21.23
2023-02-21T12:48:40.789Z,21.23
2023-02-21T12:49:53.137Z,21.23
2023-02-21T12:50:56.348Z,21.21
2023-02-21T12:53:35.514Z,21.21
2023-02-21T12:54:28.017Z,21.21
2023-02-21T12:55:41.086Z,21.23
2023-02-21T12:56:53.257Z,21.24
2023-02-21T12:57:56.595Z,21.26
2023-02-21T12:59:08.813Z,21.27
2023-02-21T13:00:21.607Z,21.3
2023-02-21T13:01:24.094Z,21.29
2023-02-21T13:02:37.255Z,21.33
2023-02-21T13:03:49.535Z,21.27
2023-02-21T13:05:02.582Z,21.27
2023-02-21T13:06:04.912Z,21.27
2023-02-21T13:07:18.120Z,21.27
2023-02-21T13:08:30.347Z,21.31
2023-02-21T13:09:43.587Z,21.29
2023-02-21T13:10:45.950Z,21.31
2023-02-21T13:11:59.080Z,21.31
2023-02-21T13:13:11.332Z,21.33
2023-02-21T13:14:14.563Z,21.34
2023-02-21T13:15:26.736Z,21.34
2023-02-21T13:16:39.819Z,21.36
2023-02-21T13:17:52.014Z,21.36
2023-02-21T13:18:55.110Z,21.37
2023-02-21T13:20:07.268Z,21.36
2023-02-21T13:21:20.105Z,21.37
2023-02-21T13:22:32.296Z,21.34
2023-02-21T13:23:35.590Z,21.36
2023-02-21T13:24:47.786Z,21.36
2023-02-21T13:26:00.595Z,21.36
2023-02-21T13:27:02.897Z,21.37
2023-02-21T13:28:16.081Z,21.4
2023-02-21T13:29:28.276Z,21.4
2023-02-21T13:30:41.694Z,21.4
2023-02-21T13:31:44.367Z,21.41
2023-02-21T13:32:57.626Z,21.43
2023-02-21T13:34:10.945Z,21.43
2023-02-21T13:35:14.079Z,21.43
2023-02-21T13:36:26.249Z,21.41
2023-02-21T13:37:39.624Z,21.44
2023-02-21T13:38:41.912Z,21.47
2023-02-21T13:39:55.213Z,21.5
2023-02-21T13:41:07.827Z,21.48
2023-02-21T13:42:20.611Z,21.47
2023-02-21T13:43:22.974Z,21.47
2023-02-21T13:44:36.118Z,21.46
2023-02-21T13:45:48.281Z,21.46
2023-02-21T13:46:51.822Z,21.46
2023-02-21T13:48:04.004Z,21.48
2023-02-21T13:49:17.131Z,21.5
2023-02-21T13:50:29.299Z,21.5
2023-02-21T13:51:32.593Z,21.5
2023-02-21T13:52:44.813Z,21.5
2023-02-21T13:53:58.087Z,21.48
2023-02-21T13:55:10.405Z,21.51
2023-02-21T13:56:13.588Z,21.53
2023-02-21T13:57:25.861Z,21.53
2023-02-21T13:58:39.093Z,21.54
2023-02-21T13:59:41.427Z,21.54
2023-02-21T14:00:54.651Z,21.54
2023-02-21T14:02:06.941Z,21.55
2023-02-21T14:03:20.092Z,21.57
2023-02-21T14:04:22.498Z,21.57
2023-02-21T14:05:35.616Z,21.57
2023-02-21T14:06:47.985Z,21.6
2023-02-21T14:07:53.769Z,21.58
2023-02-21T14:09:06.119Z,21.61
2023-02-21T14:10:19.125Z,21.62
2023-02-21T14:11:21.653Z,21.62
2023-02-21T14:12:34.597Z,21.64
2023-02-21T14:13:46.751Z,21.64
2023-02-21T14:14:59.664Z,21.67
2023-02-21T14:16:02.028Z,21.68
2023-02-21T14:17:15.142Z,21.67
2023-02-21T14:18:37.159Z,21.7
2023-02-21T14:19:30.645Z,21.71
2023-02-21T14:20:42.876Z,21.7
2023-02-21T14:21:56.656Z,21.72
2023-02-21T14:22:58.964Z,21.71
2023-02-21T14:24:12.121Z,21.68
2023-02-21T14:25:24.257Z,21.72
2023-02-21T14:26:37.110Z,21.7
2023-02-21T14:27:39.374Z,21.71
2023-02-21T14:28:52.149Z,21.72
2023-02-21T14:30:04.440Z,21.71
2023-02-21T14:31:17.900Z,21.71
2023-02-21T14:32:20.630Z,21.71
2023-02-21T14:33:33.636Z,21.71
2023-02-21T14:34:45.823Z,21.72
2023-02-21T14:35:48.643Z,21.71
2023-02-21T14:37:00.801Z,21.7
2023-02-21T14:38:13.639Z,21.71
2023-02-21T14:39:25.937Z,21.74
2023-02-21T14:40:29.150Z,21.68
2023-02-21T14:41:41.327Z,21.7
2023-02-21T14:42:54.186Z,21.71
2023-02-21T14:44:06.491Z,21.71
2023-02-21T14:45:09.620Z,21.71
2023-02-21T14:46:21.811Z,21.72
2023-02-21T14:47:34.662Z,21.71
2023-02-21T14:48:46.871Z,21.72
2023-02-21T14:49:50.139Z,21.75
2023-02-21T14:51:02.362Z,21.72
2023-02-21T14:52:15.432Z,21.71
2023-02-21T14:53:17.715Z,21.74
2023-02-21T14:54:31.434Z,21.71
2023-02-21T14:55:43.574Z,21.71
2023-02-21T14:56:56.644Z,21.74
2023-02-21T14:57:58.916Z,21.72
2023-02-21T14:59:11.656Z,21.72
2023-02-21T15:00:23.856Z,21.72
2023-02-21T15:01:27.194Z,21.74
2023-02-21T15:02:39.446Z,21.75
2023-02-21T15:03:52.703Z,21.74
2023-02-21T15:05:04.969Z,21.75
2023-02-21T15:06:08.203Z,21.75
2023-02-21T15:07:20.701Z,21.72
2023-02-21T15:08:33.630Z,21.75